sensor_id;sensor_type;location;lat;lon;timestamp;pressure;altitude;pressure_sealevel;temperature;humidity
35224;BME280;21367;51.930;8.112;2023-04-19T00:01:32;102137.38;;;10.14;83.48
35224;BME280;21367;51.930;8.112;2023-04-19T00:06:40;102134.13;;;10.69;81.71
35224;BME280;21367;51.930;8.112;2023-04-19T00:11:46;102122.66;;;10.50;81.61
35224;BME280;21367;51.930;8.112;2023-04-19T00:16:50;102120.34;;;10.28;80.81
35224;BME280;21367;51.930;8.112;2023-04-19T00:21:57;102124.78;;;9.92;79.91
35224;BME280;21367;51.930;8.112;2023-04-19T00:27:01;102118.88;;;9.93;78.72
35224;BME280;21367;51.930;8.112;2023-04-19T00:32:05;102113.03;;;9.96;78.13
35224;BME280;21367;51.930;8.112;2023-04-19T00:37:12;102114.97;;;9.87;77.19
35224;BME280;21367;51.930;8.112;2023-04-19T00:42:16;102117.28;;;9.95;76.03
35224;BME280;21367;51.930;8.112;2023-04-19T00:47:21;102112.69;;;9.78;76.21
35224;BME280;21367;51.930;8.112;2023-04-19T00:52:28;102114.81;;;9.97;75.80
35224;BME280;21367;51.930;8.112;2023-04-19T00:57:32;102113.03;;;9.96;76.60
35224;BME280;21367;51.930;8.112;2023-04-19T01:02:36;102110.09;;;10.03;77.34
35224;BME280;21367;51.930;8.112;2023-04-19T01:07:43;102112.31;;;9.85;78.81
35224;BME280;21367;51.930;8.112;2023-04-19T01:12:48;102110.59;;;9.72;80.28
35224;BME280;21367;51.930;8.112;2023-04-19T01:17:52;102113.88;;;9.58;81.33
35224;BME280;21367;51.930;8.112;2023-04-19T01:22:59;102116.63;;;9.48;81.54
35224;BME280;21367;51.930;8.112;2023-04-19T01:28:04;102106.75;;;9.29;81.53
35224;BME280;21367;51.930;8.112;2023-04-19T01:39:15;102109.84;;;9.37;81.26
35224;BME280;21367;51.930;8.112;2023-04-19T01:44:19;102113.19;;;9.36;80.20
35224;BME280;21367;51.930;8.112;2023-04-19T01:49:23;102106.66;;;9.27;80.41
35224;BME280;21367;51.930;8.112;2023-04-19T01:54:30;102105.84;;;9.40;79.80
35224;BME280;21367;51.930;8.112;2023-04-19T01:59:34;102105.69;;;9.14;80.57
35224;BME280;21367;51.930;8.112;2023-04-19T02:04:38;102103.13;;;9.02;80.57
35224;BME280;21367;51.930;8.112;2023-04-19T02:09:46;102107.88;;;9.21;80.21
35224;BME280;21367;51.930;8.112;2023-04-19T02:14:50;102110.34;;;9.31;78.75
35224;BME280;21367;51.930;8.112;2023-04-19T02:20:05;102107.44;;;9.15;79.02
35224;BME280;21367;51.930;8.112;2023-04-19T02:25:14;102116.22;;;8.82;78.76
35224;BME280;21367;51.930;8.112;2023-04-19T02:30:20;102108.00;;;9.22;78.13
35224;BME280;21367;51.930;8.112;2023-04-19T02:35:24;102103.97;;;9.26;76.21
35224;BME280;21367;51.930;8.112;2023-04-19T02:40:34;102105.88;;;9.29;75.82
35224;BME280;21367;51.930;8.112;2023-04-19T02:45:38;102110.78;;;9.25;74.36
35224;BME280;21367;51.930;8.112;2023-04-19T02:50:42;102110.09;;;8.91;75.28
35224;BME280;21367;51.930;8.112;2023-04-19T02:55:49;102107.38;;;8.90;75.31
35224;BME280;21367;51.930;8.112;2023-04-19T03:00:54;102112.66;;;8.68;74.31
35224;BME280;21367;51.930;8.112;2023-04-19T03:05:58;102112.00;;;8.70;73.65
35224;BME280;21367;51.930;8.112;2023-04-19T03:11:05;102118.13;;;8.61;70.13
35224;BME280;21367;51.930;8.112;2023-04-19T03:16:09;102118.47;;;8.65;68.41
35224;BME280;21367;51.930;8.112;2023-04-19T03:21:14;102114.63;;;8.37;65.28
35224;BME280;21367;51.930;8.112;2023-04-19T03:26:30;102092.00;;;8.07;63.20
35224;BME280;21367;51.930;8.112;2023-04-19T03:31:35;102102.66;;;8.02;61.13
35224;BME280;21367;51.930;8.112;2023-04-19T03:36:41;102096.25;;;8.19;60.77
35224;BME280;21367;51.930;8.112;2023-04-19T03:41:48;102094.19;;;7.91;60.69
35224;BME280;21367;51.930;8.112;2023-04-19T03:46:57;102095.16;;;7.81;59.93
35224;BME280;21367;51.930;8.112;2023-04-19T03:52:04;102087.16;;;7.88;59.53
35224;BME280;21367;51.930;8.112;2023-04-19T03:57:12;102091.88;;;8.06;59.57
35224;BME280;21367;51.930;8.112;2023-04-19T04:02:17;102096.19;;;7.61;61.01
35224;BME280;21367;51.930;8.112;2023-04-19T04:07:21;102100.75;;;7.54;61.30
35224;BME280;21367;51.930;8.112;2023-04-19T04:12:29;102106.88;;;7.34;63.73
35224;BME280;21367;51.930;8.112;2023-04-19T04:17:34;102098.88;;;7.63;62.38
35224;BME280;21367;51.930;8.112;2023-04-19T04:22:40;102094.34;;;7.15;63.61
35224;BME280;21367;51.930;8.112;2023-04-19T04:27:52;102099.91;;;6.99;63.64
35224;BME280;21367;51.930;8.112;2023-04-19T04:32:58;102105.13;;;7.01;64.70
35224;BME280;21367;51.930;8.112;2023-04-19T04:38:02;102105.72;;;6.86;63.75
35224;BME280;21367;51.930;8.112;2023-04-19T04:43:10;102120.69;;;6.39;65.45
35224;BME280;21367;51.930;8.112;2023-04-19T04:48:13;102125.91;;;6.41;65.17
35224;BME280;21367;51.930;8.112;2023-04-19T04:53:17;102131.88;;;6.62;64.26
35224;BME280;21367;51.930;8.112;2023-04-19T04:58:23;102143.03;;;6.21;66.08
35224;BME280;21367;51.930;8.112;2023-04-19T05:03:39;102143.06;;;6.74;64.76
35224;BME280;21367;51.930;8.112;2023-04-19T05:08:47;102144.53;;;6.30;64.48
35224;BME280;21367;51.930;8.112;2023-04-19T05:14:02;102159.13;;;6.31;65.30
35224;BME280;21367;51.930;8.112;2023-04-19T05:19:07;102161.34;;;5.76;66.95
35224;BME280;21367;51.930;8.112;2023-04-19T05:24:17;102161.81;;;6.12;66.46
35224;BME280;21367;51.930;8.112;2023-04-19T05:29:24;102167.22;;;5.75;67.22
35224;BME280;21367;51.930;8.112;2023-04-19T05:34:29;102153.72;;;6.58;65.81
35224;BME280;21367;51.930;8.112;2023-04-19T05:39:34;102164.06;;;6.49;66.37
35224;BME280;21367;51.930;8.112;2023-04-19T05:44:41;102166.00;;;6.32;65.57
35224;BME280;21367;51.930;8.112;2023-04-19T05:49:46;102154.53;;;6.06;66.76
35224;BME280;21367;51.930;8.112;2023-04-19T05:55:00;102152.72;;;6.25;67.11
35224;BME280;21367;51.930;8.112;2023-04-19T06:00:10;102148.72;;;5.88;67.84
35224;BME280;21367;51.930;8.112;2023-04-19T06:05:33;102150.94;;;6.04;68.23
35224;BME280;21367;51.930;8.112;2023-04-19T06:10:58;102153.97;;;5.90;68.46
35224;BME280;21367;51.930;8.112;2023-04-19T06:16:06;102160.44;;;5.76;69.23
35224;BME280;21367;51.930;8.112;2023-04-19T06:21:14;102159.50;;;5.94;68.85
35224;BME280;21367;51.930;8.112;2023-04-19T06:26:18;102150.97;;;6.14;68.13
35224;BME280;21367;51.930;8.112;2023-04-19T06:31:25;102155.28;;;6.46;67.56
35224;BME280;21367;51.930;8.112;2023-04-19T06:36:29;102140.91;;;6.68;67.43
35224;BME280;21367;51.930;8.112;2023-04-19T06:41:32;102148.94;;;6.73;66.20
35224;BME280;21367;51.930;8.112;2023-04-19T06:46:39;102153.50;;;6.24;68.25
35224;BME280;21367;51.930;8.112;2023-04-19T06:51:43;102155.66;;;6.40;67.03
35224;BME280;21367;51.930;8.112;2023-04-19T06:56:48;102163.03;;;7.00;66.16
35224;BME280;21367;51.930;8.112;2023-04-19T07:01:55;102160.59;;;7.02;66.34
35224;BME280;21367;51.930;8.112;2023-04-19T07:06:59;102167.94;;;6.87;66.81
35224;BME280;21367;51.930;8.112;2023-04-19T07:12:04;102163.28;;;6.51;66.07
35224;BME280;21367;51.930;8.112;2023-04-19T07:17:11;102158.81;;;6.58;66.89
35224;BME280;21367;51.930;8.112;2023-04-19T07:22:17;102160.78;;;6.93;65.98
35224;BME280;21367;51.930;8.112;2023-04-19T07:27:22;102160.63;;;6.91;65.06
35224;BME280;21367;51.930;8.112;2023-04-19T07:32:29;102152.44;;;7.50;64.84
35224;BME280;21367;51.930;8.112;2023-04-19T07:37:33;102150.47;;;7.35;64.16
35224;BME280;21367;51.930;8.112;2023-04-19T07:42:37;102143.88;;;7.71;63.90
35224;BME280;21367;51.930;8.112;2023-04-19T07:47:43;102154.88;;;8.04;63.27
35224;BME280;21367;51.930;8.112;2023-04-19T07:52:47;102142.34;;;7.85;62.54
35224;BME280;21367;51.930;8.112;2023-04-19T07:57:51;102141.56;;;7.86;62.81
35224;BME280;21367;51.930;8.112;2023-04-19T08:02:59;102144.75;;;7.72;61.91
35224;BME280;21367;51.930;8.112;2023-04-19T08:08:04;102142.38;;;8.30;64.27
35224;BME280;21367;51.930;8.112;2023-04-19T08:13:08;102141.63;;;8.78;61.13
35224;BME280;21367;51.930;8.112;2023-04-19T08:18:15;102130.44;;;8.31;60.40
35224;BME280;21367;51.930;8.112;2023-04-19T08:23:20;102121.38;;;8.46;59.92
35224;BME280;21367;51.930;8.112;2023-04-19T08:28:24;102131.09;;;9.11;59.78
35224;BME280;21367;51.930;8.112;2023-04-19T08:33:31;102122.97;;;9.04;59.39
35224;BME280;21367;51.930;8.112;2023-04-19T08:38:36;102119.16;;;9.11;57.78
35224;BME280;21367;51.930;8.112;2023-04-19T08:43:46;102104.78;;;9.13;57.93
35224;BME280;21367;51.930;8.112;2023-04-19T08:49:00;102113.59;;;9.54;56.13
35224;BME280;21367;51.930;8.112;2023-04-19T08:54:05;102103.38;;;9.67;55.49
35224;BME280;21367;51.930;8.112;2023-04-19T08:59:10;102093.69;;;9.38;54.88
35224;BME280;21367;51.930;8.112;2023-04-19T09:04:17;102097.72;;;9.34;53.70
35224;BME280;21367;51.930;8.112;2023-04-19T09:09:24;102094.16;;;9.57;54.31
35224;BME280;21367;51.930;8.112;2023-04-19T09:14:28;102089.44;;;10.02;52.69
35224;BME280;21367;51.930;8.112;2023-04-19T09:19:44;102088.88;;;9.81;51.57
35224;BME280;21367;51.930;8.112;2023-04-19T09:24:49;102072.22;;;10.52;52.08
35224;BME280;21367;51.930;8.112;2023-04-19T09:29:53;102076.06;;;10.72;51.45
35224;BME280;21367;51.930;8.112;2023-04-19T09:35:06;102080.00;;;10.80;51.53
35224;BME280;21367;51.930;8.112;2023-04-19T09:40:25;102071.81;;;11.14;48.26
35224;BME280;21367;51.930;8.112;2023-04-19T09:45:38;102058.56;;;11.08;51.18
35224;BME280;21367;51.930;8.112;2023-04-19T09:50:55;102049.72;;;11.18;50.62
35224;BME280;21367;51.930;8.112;2023-04-19T09:56:02;102052.94;;;11.85;50.31
35224;BME280;21367;51.930;8.112;2023-04-19T10:01:09;102049.09;;;11.50;51.23
35224;BME280;21367;51.930;8.112;2023-04-19T10:06:17;102044.25;;;11.69;50.25
35224;BME280;21367;51.930;8.112;2023-04-19T10:11:22;102029.13;;;12.03;50.83
35224;BME280;21367;51.930;8.112;2023-04-19T10:16:31;102029.72;;;12.14;49.03
35224;BME280;21367;51.930;8.112;2023-04-19T10:21:40;102016.34;;;12.67;49.32
35224;BME280;21367;51.930;8.112;2023-04-19T10:27:05;101993.88;;;12.50;46.73
35224;BME280;21367;51.930;8.112;2023-04-19T10:32:13;101997.06;;;12.61;47.08
35224;BME280;21367;51.930;8.112;2023-04-19T10:37:21;101982.88;;;12.69;46.10
35224;BME280;21367;51.930;8.112;2023-04-19T10:48:34;101973.34;;;13.32;43.05
35224;BME280;21367;51.930;8.112;2023-04-19T10:53:48;101964.03;;;13.03;42.97
35224;BME280;21367;51.930;8.112;2023-04-19T10:59:11;101950.31;;;13.71;42.39
35224;BME280;21367;51.930;8.112;2023-04-19T11:04:24;101948.16;;;14.16;42.57
35224;BME280;21367;51.930;8.112;2023-04-19T11:09:51;101935.16;;;14.14;41.47
35224;BME280;21367;51.930;8.112;2023-04-19T11:14:57;101933.72;;;14.39;43.50
35224;BME280;21367;51.930;8.112;2023-04-19T11:20:07;101927.44;;;14.51;42.21
35224;BME280;21367;51.930;8.112;2023-04-19T11:25:18;101919.75;;;15.11;40.90
35224;BME280;21367;51.930;8.112;2023-04-19T11:30:28;101902.97;;;15.03;38.64
35224;BME280;21367;51.930;8.112;2023-04-19T11:35:33;101907.75;;;15.34;40.36
35224;BME280;21367;51.930;8.112;2023-04-19T11:40:43;101890.53;;;15.77;42.61
35224;BME280;21367;51.930;8.112;2023-04-19T11:45:47;101876.38;;;16.36;37.49
35224;BME280;21367;51.930;8.112;2023-04-19T11:50:56;101874.34;;;15.61;37.24
35224;BME280;21367;51.930;8.112;2023-04-19T11:56:08;101867.16;;;14.93;36.85
35224;BME280;21367;51.930;8.112;2023-04-19T12:01:13;101870.97;;;15.22;39.14
35224;BME280;21367;51.930;8.112;2023-04-19T12:06:22;101873.88;;;16.15;36.81
35224;BME280;21367;51.930;8.112;2023-04-19T12:11:45;101859.69;;;16.76;37.73
35224;BME280;21367;51.930;8.112;2023-04-19T12:17:07;101854.16;;;17.70;35.40
35224;BME280;21367;51.930;8.112;2023-04-19T12:22:15;101855.59;;;16.58;36.73
35224;BME280;21367;51.930;8.112;2023-04-19T12:27:26;101846.50;;;15.78;38.65
35224;BME280;21367;51.930;8.112;2023-04-19T12:32:30;101840.25;;;17.41;37.70
35224;BME280;21367;51.930;8.112;2023-04-19T12:37:34;101833.47;;;16.94;36.79
35224;BME280;21367;51.930;8.112;2023-04-19T12:42:41;101823.63;;;17.10;37.94
35224;BME280;21367;51.930;8.112;2023-04-19T12:47:46;101816.16;;;18.33;35.16
35224;BME280;21367;51.930;8.112;2023-04-19T12:52:50;101815.44;;;16.98;38.02
35224;BME280;21367;51.930;8.112;2023-04-19T12:57:56;101804.84;;;15.96;37.20
35224;BME280;21367;51.930;8.112;2023-04-19T13:03:00;101794.47;;;17.18;38.37
35224;BME280;21367;51.930;8.112;2023-04-19T13:08:05;101797.91;;;17.45;36.50
35224;BME280;21367;51.930;8.112;2023-04-19T13:13:13;101794.06;;;19.16;35.11
35224;BME280;21367;51.930;8.112;2023-04-19T13:18:16;101777.38;;;17.53;35.86
35224;BME280;21367;51.930;8.112;2023-04-19T13:23:21;101776.66;;;17.03;37.32
35224;BME280;21367;51.930;8.112;2023-04-19T13:28:29;101758.88;;;18.98;34.77
35224;BME280;21367;51.930;8.112;2023-04-19T13:33:36;101747.66;;;16.91;36.42
35224;BME280;21367;51.930;8.112;2023-04-19T13:38:41;101748.53;;;17.74;37.56
35224;BME280;21367;51.930;8.112;2023-04-19T13:43:49;101728.69;;;16.42;37.77
35224;BME280;21367;51.930;8.112;2023-04-19T13:48:52;101718.56;;;17.28;35.84
35224;BME280;21367;51.930;8.112;2023-04-19T13:53:57;101704.06;;;18.26;33.33
35224;BME280;21367;51.930;8.112;2023-04-19T13:59:04;101713.81;;;17.72;32.62
35224;BME280;21367;51.930;8.112;2023-04-19T14:04:08;101704.31;;;16.88;34.14
35224;BME280;21367;51.930;8.112;2023-04-19T14:09:13;101699.56;;;18.53;31.79
35224;BME280;21367;51.930;8.112;2023-04-19T14:14:20;101695.38;;;18.94;31.04
35224;BME280;21367;51.930;8.112;2023-04-19T14:19:24;101690.75;;;16.71;35.15
35224;BME280;21367;51.930;8.112;2023-04-19T14:24:28;101689.66;;;18.72;31.41
35224;BME280;21367;51.930;8.112;2023-04-19T14:29:36;101689.81;;;18.12;32.84
35224;BME280;21367;51.930;8.112;2023-04-19T14:34:40;101671.88;;;18.56;32.24
35224;BME280;21367;51.930;8.112;2023-04-19T14:39:45;101672.72;;;18.55;32.06
35224;BME280;21367;51.930;8.112;2023-04-19T14:44:53;101668.47;;;18.24;33.51
35224;BME280;21367;51.930;8.112;2023-04-19T14:49:57;101663.09;;;18.87;31.32
35224;BME280;21367;51.930;8.112;2023-04-19T14:55:07;101653.03;;;18.32;31.70
35224;BME280;21367;51.930;8.112;2023-04-19T15:00:16;101657.81;;;17.83;32.98
35224;BME280;21367;51.930;8.112;2023-04-19T15:05:21;101651.19;;;17.05;33.53
35224;BME280;21367;51.930;8.112;2023-04-19T15:10:27;101654.25;;;17.51;32.04
35224;BME280;21367;51.930;8.112;2023-04-19T15:15:37;101643.16;;;18.89;32.35
35224;BME280;21367;51.930;8.112;2023-04-19T15:20:42;101636.19;;;18.88;30.49
35224;BME280;21367;51.930;8.112;2023-04-19T15:25:46;101658.09;;;16.01;34.65
35224;BME280;21367;51.930;8.112;2023-04-19T15:30:59;101643.13;;;16.18;34.56
35224;BME280;21367;51.930;8.112;2023-04-19T15:36:04;101649.44;;;16.01;35.58
35224;BME280;21367;51.930;8.112;2023-04-19T15:41:08;101661.38;;;15.04;36.99
35224;BME280;21367;51.930;8.112;2023-04-19T15:46:18;101653.81;;;14.88;36.00
35224;BME280;21367;51.930;8.112;2023-04-19T15:51:22;101656.72;;;14.95;35.96
35224;BME280;21367;51.930;8.112;2023-04-19T15:56:26;101654.22;;;15.42;34.45
35224;BME280;21367;51.930;8.112;2023-04-19T16:01:32;101662.31;;;15.06;35.98
35224;BME280;21367;51.930;8.112;2023-04-19T16:06:36;101664.38;;;14.10;37.35
35224;BME280;21367;51.930;8.112;2023-04-19T16:11:41;101658.88;;;14.43;37.18
35224;BME280;21367;51.930;8.112;2023-04-19T16:16:48;101657.84;;;15.24;36.80
35224;BME280;21367;51.930;8.112;2023-04-19T16:21:53;101650.84;;;16.42;34.91
35224;BME280;21367;51.930;8.112;2023-04-19T16:26:57;101651.94;;;13.43;38.26
35224;BME280;21367;51.930;8.112;2023-04-19T16:32:04;101659.47;;;14.77;37.83
35224;BME280;21367;51.930;8.112;2023-04-19T16:37:10;101648.44;;;15.73;36.44
35224;BME280;21367;51.930;8.112;2023-04-19T16:42:15;101641.75;;;16.04;34.89
35224;BME280;21367;51.930;8.112;2023-04-19T16:47:22;101651.38;;;17.11;34.80
35224;BME280;21367;51.930;8.112;2023-04-19T16:52:27;101659.47;;;14.56;38.92
35224;BME280;21367;51.930;8.112;2023-04-19T16:57:31;101661.50;;;12.90;41.40
35224;BME280;21367;51.930;8.112;2023-04-19T17:02:38;101653.78;;;13.26;41.19
35224;BME280;21367;51.930;8.112;2023-04-19T17:07:42;101654.50;;;12.88;42.17
35224;BME280;21367;51.930;8.112;2023-04-19T17:12:46;101654.22;;;12.64;42.09
35224;BME280;21367;51.930;8.112;2023-04-19T17:17:53;101647.25;;;12.45;43.19
35224;BME280;21367;51.930;8.112;2023-04-19T17:22:57;101656.84;;;11.64;44.42
35224;BME280;21367;51.930;8.112;2023-04-19T17:28:03;101654.19;;;11.79;44.07
35224;BME280;21367;51.930;8.112;2023-04-19T17:33:10;101659.03;;;11.56;44.85
35224;BME280;21367;51.930;8.112;2023-04-19T17:38:14;101649.44;;;12.19;43.57
35224;BME280;21367;51.930;8.112;2023-04-19T17:43:23;101649.69;;;12.08;43.83
35224;BME280;21367;51.930;8.112;2023-04-19T17:48:33;101646.78;;;12.01;43.79
35224;BME280;21367;51.930;8.112;2023-04-19T17:53:42;101643.88;;;12.46;43.02
35224;BME280;21367;51.930;8.112;2023-04-19T17:58:48;101647.31;;;12.29;43.76
35224;BME280;21367;51.930;8.112;2023-04-19T18:03:55;101644.25;;;12.54;44.37
35224;BME280;21367;51.930;8.112;2023-04-19T18:09:00;101650.72;;;11.62;45.54
35224;BME280;21367;51.930;8.112;2023-04-19T18:14:03;101655.13;;;11.32;46.72
35224;BME280;21367;51.930;8.112;2023-04-19T18:19:10;101651.72;;;11.17;45.88
35224;BME280;21367;51.930;8.112;2023-04-19T18:24:14;101662.53;;;10.65;46.81
35224;BME280;21367;51.930;8.112;2023-04-19T18:29:19;101662.06;;;10.87;47.07
35224;BME280;21367;51.930;8.112;2023-04-19T18:34:28;101664.81;;;10.90;47.69
35224;BME280;21367;51.930;8.112;2023-04-19T18:39:33;101664.41;;;10.68;47.98
35224;BME280;21367;51.930;8.112;2023-04-19T18:44:36;101666.63;;;10.76;47.55
35224;BME280;21367;51.930;8.112;2023-04-19T18:49:44;101674.03;;;10.72;47.86
35224;BME280;21367;51.930;8.112;2023-04-19T18:54:54;101674.59;;;10.51;47.93
35224;BME280;21367;51.930;8.112;2023-04-19T18:59:59;101685.19;;;10.13;48.56
35224;BME280;21367;51.930;8.112;2023-04-19T19:05:08;101685.31;;;10.59;49.11
35224;BME280;21367;51.930;8.112;2023-04-19T19:10:13;101683.38;;;9.69;50.15
35224;BME280;21367;51.930;8.112;2023-04-19T19:15:17;101689.78;;;10.04;50.13
35224;BME280;21367;51.930;8.112;2023-04-19T19:20:23;101681.38;;;10.21;49.30
35224;BME280;21367;51.930;8.112;2023-04-19T19:25:27;101685.97;;;9.84;50.47
35224;BME280;21367;51.930;8.112;2023-04-19T19:30:31;101688.34;;;9.81;49.73
35224;BME280;21367;51.930;8.112;2023-04-19T19:35:41;101680.94;;;9.85;49.99
35224;BME280;21367;51.930;8.112;2023-04-19T19:40:45;101683.56;;;10.00;49.80
35224;BME280;21367;51.930;8.112;2023-04-19T19:45:49;101676.09;;;9.62;50.33
35224;BME280;21367;51.930;8.112;2023-04-19T19:50:56;101683.13;;;9.51;50.24
35224;BME280;21367;51.930;8.112;2023-04-19T19:56:02;101681.00;;;9.31;50.15
35224;BME280;21367;51.930;8.112;2023-04-19T20:01:06;101683.69;;;9.06;50.04
35224;BME280;21367;51.930;8.112;2023-04-19T20:06:14;101683.41;;;9.27;49.00
35224;BME280;21367;51.930;8.112;2023-04-19T20:11:18;101689.50;;;9.16;48.73
35224;BME280;21367;51.930;8.112;2023-04-19T20:16:22;101680.44;;;9.21;48.01
35224;BME280;21367;51.930;8.112;2023-04-19T20:21:29;101689.09;;;9.23;48.72
35224;BME280;21367;51.930;8.112;2023-04-19T20:26:33;101687.63;;;8.74;48.90
35224;BME280;21367;51.930;8.112;2023-04-19T20:31:38;101692.06;;;8.90;48.53
35224;BME280;21367;51.930;8.112;2023-04-19T20:36:45;101678.19;;;8.73;49.03
35224;BME280;21367;51.930;8.112;2023-04-19T20:41:49;101681.72;;;9.01;47.63
35224;BME280;21367;51.930;8.112;2023-04-19T20:46:54;101676.09;;;9.07;47.17
35224;BME280;21367;51.930;8.112;2023-04-19T20:52:01;101677.16;;;9.24;46.86
35224;BME280;21367;51.930;8.112;2023-04-19T20:57:06;101654.66;;;9.33;46.35
35224;BME280;21367;51.930;8.112;2023-04-19T21:02:10;101669.72;;;8.35;48.74
35224;BME280;21367;51.930;8.112;2023-04-19T21:07:16;101663.78;;;8.88;47.05
35224;BME280;21367;51.930;8.112;2023-04-19T21:12:20;101659.34;;;8.72;46.73
35224;BME280;21367;51.930;8.112;2023-04-19T21:17:24;101656.31;;;8.78;46.83
35224;BME280;21367;51.930;8.112;2023-04-19T21:22:31;101650.38;;;8.66;46.92
35224;BME280;21367;51.930;8.112;2023-04-19T21:27:35;101644.94;;;8.61;46.80
35224;BME280;21367;51.930;8.112;2023-04-19T21:32:39;101651.53;;;8.44;48.19
35224;BME280;21367;51.930;8.112;2023-04-19T21:37:45;101637.06;;;8.58;46.80
35224;BME280;21367;51.930;8.112;2023-04-19T21:42:50;101628.81;;;8.62;46.63
35224;BME280;21367;51.930;8.112;2023-04-19T21:47:54;101620.00;;;8.58;46.79
35224;BME280;21367;51.930;8.112;2023-04-19T21:53:00;101622.84;;;8.90;47.77
35224;BME280;21367;51.930;8.112;2023-04-19T21:58:04;101619.97;;;9.12;47.73
35224;BME280;21367;51.930;8.112;2023-04-19T22:03:08;101617.59;;;9.15;46.14
35224;BME280;21367;51.930;8.112;2023-04-19T22:08:14;101613.34;;;9.29;47.56
35224;BME280;21367;51.930;8.112;2023-04-19T22:13:18;101619.41;;;9.31;46.74
35224;BME280;21367;51.930;8.112;2023-04-19T22:18:23;101618.78;;;9.20;47.38
35224;BME280;21367;51.930;8.112;2023-04-19T22:23:29;101611.25;;;8.03;50.78
35224;BME280;21367;51.930;8.112;2023-04-19T22:28:33;101599.47;;;8.19;50.62
35224;BME280;21367;51.930;8.112;2023-04-19T22:33:37;101588.22;;;7.65;54.00
35224;BME280;21367;51.930;8.112;2023-04-19T22:38:44;101576.19;;;7.64;55.53
35224;BME280;21367;51.930;8.112;2023-04-19T22:43:48;101572.03;;;7.91;54.98
35224;BME280;21367;51.930;8.112;2023-04-19T22:48:51;101580.00;;;7.96;55.51
35224;BME280;21367;51.930;8.112;2023-04-19T22:53:58;101566.16;;;8.98;53.78
35224;BME280;21367;51.930;8.112;2023-04-19T22:59:01;101561.16;;;9.43;52.95
35224;BME280;21367;51.930;8.112;2023-04-19T23:04:05;101554.19;;;9.40;52.62
35224;BME280;21367;51.930;8.112;2023-04-19T23:09:12;101535.31;;;9.25;51.08
35224;BME280;21367;51.930;8.112;2023-04-19T23:14:15;101527.13;;;9.17;50.03
35224;BME280;21367;51.930;8.112;2023-04-19T23:19:19;101515.72;;;8.84;50.29
35224;BME280;21367;51.930;8.112;2023-04-19T23:24:28;101506.16;;;8.82;50.12
35224;BME280;21367;51.930;8.112;2023-04-19T23:29:31;101503.53;;;8.27;51.82
35224;BME280;21367;51.930;8.112;2023-04-19T23:34:35;101499.22;;;8.52;51.34
35224;BME280;21367;51.930;8.112;2023-04-19T23:39:42;101492.31;;;8.51;51.30
35224;BME280;21367;51.930;8.112;2023-04-19T23:44:46;101479.03;;;8.30;52.32
35224;BME280;21367;51.930;8.112;2023-04-19T23:49:53;101478.22;;;8.45;51.85
35224;BME280;21367;51.930;8.112;2023-04-19T23:55:00;101467.09;;;8.31;52.60
